createdAt,value
2023-04-15T00:00:59.963Z,101500.25
2023-04-15T00:03:28.812Z,101508.00
2023-04-15T00:05:57.719Z,101502.84
2023-04-15T00:08:26.270Z,101501.28
2023-04-15T00:10:56.687Z,101504.06
2023-04-15T00:13:25.294Z,101506.75
2023-04-15T00:15:53.856Z,101506.16
2023-04-15T00:18:22.291Z,101513.03
2023-04-15T00:20:50.822Z,101505.47
2023-04-15T00:23:19.628Z,101505.28
2023-04-15T00:25:48.537Z,101510.13
2023-04-15T00:28:18.827Z,101514.63
2023-04-15T00:30:47.487Z,101517.69
2023-04-15T00:33:16.601Z,101519.34
2023-04-15T00:35:45.155Z,101522.00
2023-04-15T00:38:14.064Z,101517.81
2023-04-15T00:40:43.788Z,101526.31
2023-04-15T00:43:12.366Z,101521.50
2023-04-15T00:45:42.591Z,101524.28
2023-04-15T00:48:12.832Z,101518.03
2023-04-15T00:50:41.440Z,101525.06
2023-04-15T00:53:09.935Z,101522.44
2023-04-15T00:55:40.000Z,101530.84
2023-04-15T00:58:08.594Z,101524.63
2023-04-15T01:00:37.348Z,101522.81
2023-04-15T01:03:07.857Z,101522.38
2023-04-15T01:05:37.095Z,101536.50
2023-04-15T01:08:06.840Z,101527.81
2023-04-15T01:10:35.608Z,101535.66
2023-04-15T01:13:04.847Z,101532.78
2023-04-15T01:15:33.787Z,101536.94
2023-04-15T01:18:03.837Z,101529.09
2023-04-15T01:20:34.032Z,101530.75
2023-04-15T01:23:02.962Z,101533.41
2023-04-15T01:25:35.193Z,101531.34
2023-04-15T01:28:05.144Z,101526.44
2023-04-15T01:30:36.120Z,101528.50
2023-04-15T01:33:04.833Z,101531.34
2023-04-15T01:35:33.488Z,101533.41
2023-04-15T01:38:07.704Z,101531.44
2023-04-15T01:40:37.930Z,101532.63
2023-04-15T01:43:06.462Z,101530.66
2023-04-15T01:45:35.164Z,101538.06
2023-04-15T01:48:06.103Z,101533.41
2023-04-15T01:50:37.082Z,101530.75
2023-04-15T01:53:05.611Z,101535.81
2023-04-15T01:55:34.202Z,101538.06
2023-04-15T01:58:04.352Z,101537.91
2023-04-15T02:00:32.874Z,101538.69
2023-04-15T02:03:01.647Z,101536.94
2023-04-15T02:05:30.732Z,101542.38
2023-04-15T02:07:59.383Z,101543.59
2023-04-15T02:10:27.980Z,101541.50
2023-04-15T02:12:56.680Z,101537.28
2023-04-15T02:15:30.682Z,101545.91
2023-04-15T02:18:01.125Z,101547.88
2023-04-15T02:20:30.948Z,101546.22
2023-04-15T02:23:00.050Z,101552.72
2023-04-15T02:25:28.559Z,101550.38
2023-04-15T02:27:59.343Z,101557.44
2023-04-15T02:30:27.962Z,101554.00
2023-04-15T02:32:57.947Z,101554.91
2023-04-15T02:35:27.205Z,101558.38
2023-04-15T02:37:56.633Z,101553.88
2023-04-15T02:40:26.341Z,101567.84
2023-04-15T02:42:54.860Z,101565.53
2023-04-15T02:45:26.085Z,101566.06
2023-04-15T02:47:54.536Z,101570.56
2023-04-15T02:50:25.789Z,101566.66
2023-04-15T02:52:54.290Z,101573.25
2023-04-15T02:55:22.950Z,101576.59
2023-04-15T02:57:51.876Z,101573.47
2023-04-15T03:00:21.021Z,101572.97
2023-04-15T03:02:52.662Z,101576.97
2023-04-15T03:05:21.483Z,101580.22
2023-04-15T03:07:54.814Z,101582.25
2023-04-15T03:10:23.628Z,101577.59
2023-04-15T03:12:52.343Z,101581.47
2023-04-15T03:15:23.411Z,101584.91
2023-04-15T03:17:54.258Z,101586.78
2023-04-15T03:20:23.690Z,101589.22
2023-04-15T03:22:53.826Z,101585.59
2023-04-15T03:25:24.583Z,101585.44
2023-04-15T03:27:53.370Z,101592.03
2023-04-15T03:30:22.286Z,101592.19
2023-04-15T03:32:50.970Z,101597.06
2023-04-15T03:35:19.839Z,101594.94
2023-04-15T03:37:49.413Z,101595.88
2023-04-15T03:40:19.713Z,101603.94
2023-04-15T03:42:48.418Z,101597.94
2023-04-15T03:45:17.269Z,101602.06
2023-04-15T03:47:46.752Z,101602.78
2023-04-15T03:50:15.539Z,101597.47
2023-04-15T03:52:44.218Z,101604.97
2023-04-15T03:55:12.956Z,101602.69
2023-04-15T03:57:43.082Z,101599.38
2023-04-15T04:00:12.263Z,101598.19
2023-04-15T04:02:41.305Z,101597.72
2023-04-15T04:05:10.974Z,101601.19
2023-04-15T04:07:39.793Z,101603.22
2023-04-15T04:10:09.373Z,101605.25
2023-04-15T04:12:38.027Z,101599.91
2023-04-15T04:15:09.596Z,101605.31
2023-04-15T04:17:38.439Z,101609.31
2023-04-15T04:20:08.507Z,101609.94
2023-04-15T04:22:40.243Z,101615.44
2023-04-15T04:25:10.373Z,101609.69
2023-04-15T04:27:39.063Z,101608.50
2023-04-15T04:30:10.930Z,101610.53
2023-04-15T04:32:39.719Z,101607.22
2023-04-15T04:35:08.928Z,101611.09
2023-04-15T04:37:37.788Z,101608.50
2023-04-15T04:40:08.319Z,101618.69
2023-04-15T04:42:38.660Z,101611.97
2023-04-15T04:45:10.994Z,101613.88
2023-04-15T04:47:39.439Z,101614.91
2023-04-15T04:50:09.588Z,101618.88
2023-04-15T04:52:38.285Z,101618.09
2023-04-15T04:55:08.865Z,101618.19
2023-04-15T04:57:37.983Z,101618.78
2023-04-15T05:00:08.668Z,101615.25
2023-04-15T05:02:38.952Z,101620.78
2023-04-15T05:05:08.928Z,101618.47
2023-04-15T05:07:37.569Z,101630.59
2023-04-15T05:10:07.381Z,101614.59
2023-04-15T05:12:37.707Z,101624.41
2023-04-15T05:15:07.645Z,101613.53
2023-04-15T05:17:36.461Z,101610.41
2023-04-15T05:20:07.684Z,101607.16
2023-04-15T05:22:36.167Z,101617.47
2023-04-15T05:25:05.011Z,101609.88
2023-04-15T05:27:33.770Z,101605.97
2023-04-15T05:30:02.385Z,101598.75
2023-04-15T05:32:30.978Z,101608.13
2023-04-15T05:34:59.826Z,101609.84
2023-04-15T05:37:29.867Z,101611.69
2023-04-15T05:39:58.540Z,101605.44
2023-04-15T05:42:27.115Z,101608.50
2023-04-15T05:44:55.746Z,101609.84
2023-04-15T05:47:24.454Z,101611.41
2023-04-15T05:49:53.022Z,101615.09
2023-04-15T05:52:21.578Z,101606.78
2023-04-15T05:54:51.692Z,101611.38
2023-04-15T05:57:20.212Z,101611.59
2023-04-15T05:59:49.338Z,101614.56
2023-04-15T06:02:17.999Z,101604.81
2023-04-15T06:04:46.921Z,101610.63
2023-04-15T06:07:15.812Z,101610.16
2023-04-15T06:09:45.073Z,101611.41
2023-04-15T06:12:15.126Z,101613.22
2023-04-15T06:14:43.871Z,101608.72
2023-04-15T06:17:15.153Z,101616.34
2023-04-15T06:19:43.871Z,101618.25
2023-04-15T06:22:12.393Z,101612.25
2023-04-15T06:24:41.378Z,101615.97
2023-04-15T06:27:10.028Z,101613.19
2023-04-15T06:29:40.197Z,101619.41
2023-04-15T06:32:08.952Z,101624.78
2023-04-15T06:34:37.594Z,101619.69
2023-04-15T06:37:06.498Z,101626.09
2023-04-15T06:39:35.206Z,101627.59
2023-04-15T06:42:04.852Z,101620.69
2023-04-15T06:44:34.040Z,101629.59
2023-04-15T06:47:04.472Z,101629.22
2023-04-15T06:49:34.000Z,101626.25
2023-04-15T06:52:02.571Z,101624.16
2023-04-15T06:54:31.249Z,101629.72
2023-04-15T06:56:59.722Z,101625.19
2023-04-15T06:59:28.337Z,101629.41
2023-04-15T07:01:56.990Z,101618.78
2023-04-15T07:04:28.090Z,101630.81
2023-04-15T07:06:57.084Z,101615.56
2023-04-15T07:09:26.840Z,101609.47
2023-04-15T07:11:55.734Z,101611.84
2023-04-15T07:14:24.240Z,101612.34
2023-04-15T07:16:53.001Z,101620.97
2023-04-15T07:19:22.124Z,101620.31
2023-04-15T07:21:52.125Z,101624.38
2023-04-15T07:24:20.883Z,101631.13
2023-04-15T07:26:49.370Z,101636.94
2023-04-15T07:29:17.909Z,101634.72
2023-04-15T07:31:46.551Z,101635.13
2023-04-15T07:34:15.259Z,101633.19
2023-04-15T07:36:43.858Z,101636.97
2023-04-15T07:39:14.004Z,101636.63
2023-04-15T07:41:42.575Z,101640.69
2023-04-15T07:44:11.169Z,101647.16
2023-04-15T07:46:40.027Z,101643.72
2023-04-15T07:49:08.863Z,101637.94
2023-04-15T07:51:37.769Z,101645.09
2023-04-15T07:54:06.218Z,101635.03
2023-04-15T07:56:36.184Z,101644.34
2023-04-15T07:59:06.409Z,101640.91
2023-04-15T08:01:35.033Z,101645.63
2023-04-15T08:04:03.994Z,101640.91
2023-04-15T08:06:33.192Z,101643.94
2023-04-15T08:09:02.070Z,101648.22
2023-04-15T08:11:31.711Z,101650.91
2023-04-15T08:14:01.893Z,101662.16
2023-04-15T08:16:30.560Z,101647.66
2023-04-15T08:18:59.265Z,101655.13
2023-04-15T08:21:27.908Z,101637.28
2023-04-15T08:23:56.790Z,101634.28
2023-04-15T08:26:25.348Z,101641.16
2023-04-15T08:28:54.108Z,101647.78
2023-04-15T08:31:24.250Z,101650.63
2023-04-15T08:33:53.782Z,101648.91
2023-04-15T08:36:22.284Z,101656.63
2023-04-15T08:38:51.088Z,101655.31
2023-04-15T08:41:24.008Z,101643.00
2023-04-15T08:43:59.735Z,101640.41
2023-04-15T08:46:30.628Z,101644.94
2023-04-15T08:49:00.936Z,101642.69
2023-04-15T08:51:30.616Z,101645.00
2023-04-15T08:53:59.638Z,101650.50
2023-04-15T08:56:29.648Z,101638.34
2023-04-15T08:58:59.467Z,101642.41
2023-04-15T09:01:30.282Z,101633.56
2023-04-15T09:04:00.530Z,101639.16
2023-04-15T09:06:29.082Z,101639.00
2023-04-15T09:08:57.995Z,101640.41
2023-04-15T09:11:27.315Z,101631.09
2023-04-15T09:13:55.803Z,101629.16
2023-04-15T09:16:24.692Z,101635.56
2023-04-15T09:18:55.574Z,101627.00
2023-04-15T09:21:24.891Z,101620.78
2023-04-15T09:23:58.130Z,101625.53
2023-04-15T09:26:35.005Z,101622.63
2023-04-15T09:29:08.203Z,101623.16
2023-04-15T09:31:37.033Z,101627.81
2023-04-15T09:34:07.424Z,101631.47
2023-04-15T09:36:54.438Z,101613.66
2023-04-15T09:39:23.181Z,101617.06
2023-04-15T09:42:08.143Z,101618.53
2023-04-15T09:44:37.084Z,101608.34
2023-04-15T09:47:05.695Z,101601.91
2023-04-15T09:49:35.924Z,101605.22
2023-04-15T09:52:06.548Z,101605.81
2023-04-15T09:54:37.322Z,101603.34
2023-04-15T09:57:10.531Z,101598.69
2023-04-15T09:59:39.362Z,101603.97
2023-04-15T10:02:08.736Z,101594.84
2023-04-15T10:04:42.872Z,101592.81
2023-04-15T10:07:13.171Z,101589.34
2023-04-15T10:09:42.067Z,101594.09
2023-04-15T10:12:10.933Z,101590.38
2023-04-15T10:14:41.765Z,101584.47
2023-04-15T10:17:13.909Z,101592.78
2023-04-15T10:19:44.278Z,101594.81
2023-04-15T10:22:12.848Z,101586.53
2023-04-15T10:24:42.948Z,101586.72
2023-04-15T10:27:12.349Z,101578.81
2023-04-15T10:29:41.506Z,101585.00
2023-04-15T10:32:11.209Z,101590.47
2023-04-15T10:34:39.911Z,101581.53
2023-04-15T10:37:12.461Z,101589.16
2023-04-15T10:39:45.125Z,101581.53
2023-04-15T10:42:15.600Z,101595.81
2023-04-15T10:44:45.474Z,101590.47
2023-04-15T10:47:15.648Z,101582.81
2023-04-15T10:49:51.953Z,101584.69
2023-04-15T10:52:26.084Z,101582.53
2023-04-15T10:55:05.169Z,101578.94
2023-04-15T10:57:37.266Z,101578.50
2023-04-15T11:00:13.845Z,101574.09
2023-04-15T11:02:44.575Z,101572.44
2023-04-15T11:05:13.956Z,101577.91
2023-04-15T11:07:51.167Z,101574.59
2023-04-15T11:11:03.590Z,101568.59
2023-04-15T11:13:34.589Z,101568.81
2023-04-15T11:16:04.707Z,101568.34
2023-04-15T11:18:35.238Z,101566.19
2023-04-15T11:21:06.511Z,101572.59
2023-04-15T11:23:39.258Z,101568.28
2023-04-15T11:26:12.118Z,101567.84
2023-04-15T11:28:42.379Z,101580.00
2023-04-15T11:31:13.162Z,101566.91
2023-04-15T11:33:48.435Z,101575.63
2023-04-15T11:36:17.067Z,101563.78
2023-04-15T11:38:48.774Z,101569.22
2023-04-15T11:41:21.732Z,101564.63
2023-04-15T11:43:50.654Z,101563.50
2023-04-15T11:46:19.180Z,101564.28
2023-04-15T11:48:48.640Z,101568.44
2023-04-15T11:51:17.133Z,101566.59
2023-04-15T11:53:48.605Z,101564.59
2023-04-15T11:56:21.710Z,101564.88
2023-04-15T11:58:53.463Z,101566.59
2023-04-15T12:01:22.115Z,101550.59
2023-04-15T12:03:51.062Z,101550.41
2023-04-15T12:06:20.939Z,101546.41
2023-04-15T12:09:01.077Z,101544.59
2023-04-15T12:11:32.389Z,101544.03
2023-04-15T12:14:04.925Z,101539.31
2023-04-15T12:16:37.244Z,101543.88
2023-04-15T12:19:25.439Z,101536.78
2023-04-15T12:22:00.247Z,101533.25
2023-04-15T12:24:33.465Z,101532.13
2023-04-15T12:27:04.979Z,101537.34
2023-04-15T12:29:34.700Z,101534.34
2023-04-15T12:32:07.805Z,101528.94
2023-04-15T12:34:37.904Z,101536.19
2023-04-15T12:37:09.674Z,101521.38
2023-04-15T12:39:41.497Z,101530.47
2023-04-15T12:42:11.100Z,101529.06
2023-04-15T12:44:40.528Z,101523.34
2023-04-15T12:47:09.803Z,101530.47
2023-04-15T12:49:38.618Z,101521.50
2023-04-15T12:52:07.318Z,101522.47
2023-04-15T12:54:36.379Z,101537.75
2023-04-15T12:57:07.688Z,101529.63
2023-04-15T12:59:36.691Z,101530.84
2023-04-15T13:02:06.750Z,101540.41
2023-04-15T13:04:35.414Z,101529.53
2023-04-15T13:07:04.457Z,101523.84
2023-04-15T13:09:33.410Z,101533.25
2023-04-15T13:12:05.528Z,101532.69
2023-04-15T13:14:35.764Z,101537.91
2023-04-15T13:17:09.216Z,101536.94
2023-04-15T13:19:38.061Z,101524.38
2023-04-15T13:22:07.204Z,101533.38
2023-04-15T13:24:35.865Z,101527.38
2023-04-15T13:27:04.616Z,101533.81
2023-04-15T13:29:34.552Z,101525.22
2023-04-15T13:32:03.215Z,101528.22
2023-04-15T13:34:31.863Z,101534.09
2023-04-15T13:37:00.470Z,101530.91
2023-04-15T13:39:29.088Z,101544.53
2023-04-15T13:41:57.793Z,101534.28
2023-04-15T13:44:26.382Z,101529.78
2023-04-15T13:46:56.398Z,101528.84
2023-04-15T13:49:24.896Z,101539.53
2023-04-15T13:51:53.458Z,101530.91
2023-04-15T13:54:21.886Z,101537.16
2023-04-15T13:56:50.588Z,101535.56
2023-04-15T13:59:19.240Z,101538.28
2023-04-15T14:01:47.964Z,101531.03
2023-04-15T14:04:18.118Z,101532.94
2023-04-15T14:06:47.029Z,101537.59
2023-04-15T14:09:16.444Z,101530.63
2023-04-15T14:11:45.126Z,101537.69
2023-04-15T14:14:15.226Z,101527.53
2023-04-15T14:16:44.924Z,101528.25
2023-04-15T14:19:13.491Z,101531.38
2023-04-15T14:21:43.539Z,101524.78
2023-04-15T14:24:12.500Z,101523.34
2023-04-15T14:26:41.130Z,101525.56
2023-04-15T14:29:09.834Z,101526.00
2023-04-15T14:31:38.381Z,101533.09
2023-04-15T14:34:09.702Z,101528.94
2023-04-15T14:36:38.241Z,101530.94
2023-04-15T14:39:08.577Z,101525.38
2023-04-15T14:41:37.881Z,101527.22
2023-04-15T14:44:06.433Z,101515.84
2023-04-15T14:46:35.140Z,101527.88
2023-04-15T14:49:04.389Z,101521.09
2023-04-15T14:51:33.286Z,101519.31
2023-04-15T14:54:01.999Z,101525.06
2023-04-15T14:56:32.209Z,101522.81
2023-04-15T14:59:00.783Z,101526.34
2023-04-15T15:01:30.305Z,101519.44
2023-04-15T15:03:59.089Z,101523.38
2023-04-15T15:06:28.005Z,101529.78
2023-04-15T15:08:56.614Z,101532.38
2023-04-15T15:11:25.813Z,101533.03
2023-04-15T15:13:55.930Z,101539.03
2023-04-15T15:16:24.536Z,101527.63
2023-04-15T15:18:53.111Z,101530.31
2023-04-15T15:21:21.591Z,101533.38
2023-04-15T15:23:50.246Z,101538.97
2023-04-15T15:26:19.544Z,101533.69
2023-04-15T15:28:49.805Z,101526.59
2023-04-15T15:31:19.935Z,101522.88
2023-04-15T15:33:48.489Z,101528.88
2023-04-15T15:36:17.884Z,101532.75
2023-04-15T15:38:46.430Z,101544.69
2023-04-15T15:41:15.790Z,101534.03
2023-04-15T15:43:44.429Z,101535.16
2023-04-15T15:46:13.084Z,101535.16
2023-04-15T15:48:43.057Z,101531.53
2023-04-15T15:51:11.700Z,101537.53
2023-04-15T15:53:40.369Z,101532.16
2023-04-15T15:56:09.870Z,101537.22
2023-04-15T15:58:38.355Z,101529.72
2023-04-15T16:01:07.338Z,101539.47
2023-04-15T16:03:36.084Z,101534.66
2023-04-15T16:06:06.631Z,101541.97
2023-04-15T16:08:35.132Z,101544.06
2023-04-15T16:11:03.772Z,101545.19
2023-04-15T16:13:32.373Z,101545.06
2023-04-15T16:16:00.895Z,101539.47
2023-04-15T16:18:29.533Z,101540.91
2023-04-15T16:20:58.196Z,101551.25
2023-04-15T16:23:28.358Z,101550.16
2023-04-15T16:25:57.836Z,101549.53
2023-04-15T16:28:27.353Z,101556.94
2023-04-15T16:30:56.375Z,101550.25
2023-04-15T16:33:24.950Z,101552.03
2023-04-15T16:35:53.692Z,101550.97
2023-04-15T16:38:22.132Z,101561.50
2023-04-15T16:40:52.548Z,101561.59
2023-04-15T16:43:21.103Z,101567.00
2023-04-15T16:45:51.641Z,101566.78
2023-04-15T16:48:20.923Z,101575.38
2023-04-15T16:50:49.457Z,101570.88
2023-04-15T16:53:18.046Z,101572.84
2023-04-15T16:55:46.511Z,101566.59
2023-04-15T16:58:16.592Z,101570.25
2023-04-15T17:00:45.310Z,101577.59
2023-04-15T17:03:14.034Z,101572.53
2023-04-15T17:05:43.196Z,101579.28
2023-04-15T17:08:11.853Z,101577.41
2023-04-15T17:10:40.488Z,101576.63
2023-04-15T17:13:09.150Z,101587.97
2023-04-15T17:15:39.340Z,101589.78
2023-04-15T17:18:08.849Z,101589.94
2023-04-15T17:20:37.389Z,101583.25
2023-04-15T17:23:06.066Z,101590.78
2023-04-15T17:25:34.585Z,101602.63
2023-04-15T17:28:03.198Z,101605.22
2023-04-15T17:30:31.872Z,101605.44
2023-04-15T17:33:02.292Z,101612.75
2023-04-15T17:35:31.065Z,101612.84
2023-04-15T17:37:59.590Z,101611.81
2023-04-15T17:40:28.124Z,101618.38
2023-04-15T17:42:56.444Z,101616.63
2023-04-15T17:45:24.925Z,101619.88
2023-04-15T17:47:53.327Z,101623.31
2023-04-15T17:50:23.314Z,101630.31
2023-04-15T17:52:51.691Z,101625.47
2023-04-15T17:55:22.226Z,101626.97
2023-04-15T17:57:50.927Z,101634.03
2023-04-15T18:00:19.694Z,101632.41
2023-04-15T18:02:50.037Z,101630.44
2023-04-15T18:05:19.988Z,101633.69
2023-04-15T18:07:52.181Z,101639.78
2023-04-15T18:10:21.362Z,101643.94
2023-04-15T18:12:49.981Z,101642.88
2023-04-15T18:15:18.844Z,101637.84
2023-04-15T18:17:47.803Z,101647.13
2023-04-15T18:20:16.458Z,101651.44
2023-04-15T18:22:45.144Z,101648.09
2023-04-15T18:25:15.150Z,101650.69
2023-04-15T18:27:43.641Z,101646.50
2023-04-15T18:30:13.673Z,101649.63
2023-04-15T18:32:42.867Z,101655.38
2023-04-15T18:35:11.537Z,101653.19
2023-04-15T18:37:40.229Z,101659.00
2023-04-15T18:40:10.085Z,101661.50
2023-04-15T18:42:40.070Z,101661.50
2023-04-15T18:45:09.854Z,101660.94
2023-04-15T18:47:38.497Z,101661.69
2023-04-15T18:50:08.955Z,101662.75
2023-04-15T18:52:37.633Z,101673.38
2023-04-15T18:55:06.892Z,101669.53
2023-04-15T18:57:36.181Z,101658.16
2023-04-15T19:00:08.627Z,101673.53
2023-04-15T19:02:37.252Z,101673.50
2023-04-15T19:05:07.086Z,101679.22
2023-04-15T19:07:36.400Z,101675.34
2023-04-15T19:10:06.127Z,101675.41
2023-04-15T19:12:36.711Z,101673.09
2023-04-15T19:15:08.149Z,101673.63
2023-04-15T19:17:36.931Z,101676.91
2023-04-15T19:20:06.274Z,101665.50
2023-04-15T19:22:35.248Z,101672.25
2023-04-15T19:25:03.905Z,101677.69
2023-04-15T19:27:32.492Z,101677.03
2023-04-15T19:30:01.027Z,101678.50
2023-04-15T19:32:31.085Z,101678.69
2023-04-15T19:34:59.779Z,101676.44
2023-04-15T19:37:28.329Z,101681.97
2023-04-15T19:39:56.835Z,101686.47
2023-04-15T19:42:25.396Z,101684.91
2023-04-15T19:44:53.834Z,101686.19
2023-04-15T19:47:22.833Z,101677.44
2023-04-15T19:49:53.307Z,101678.44
2023-04-15T19:52:22.567Z,101687.75
2023-04-15T19:54:51.175Z,101690.06
2023-04-15T19:57:19.822Z,101678.13
2023-04-15T19:59:48.486Z,101688.53
2023-04-15T20:02:17.238Z,101675.16
2023-04-15T20:04:46.104Z,101685.25
2023-04-15T20:07:16.335Z,101677.31
2023-04-15T20:09:45.722Z,101689.81
2023-04-15T20:12:51.498Z,101685.84
2023-04-15T20:15:03.276Z,101690.44
2023-04-15T20:17:34.308Z,101683.56
2023-04-15T20:20:02.728Z,101686.50
2023-04-15T20:22:33.190Z,101689.16
2023-04-15T20:25:02.210Z,101681.13
2023-04-15T20:27:30.717Z,101680.28
2023-04-15T20:29:59.234Z,101687.50
2023-04-15T20:32:28.619Z,101686.88
2023-04-15T20:34:57.178Z,101683.94
2023-04-15T20:37:25.798Z,101688.78
2023-04-15T20:39:55.863Z,101692.91
2023-04-15T20:42:24.604Z,101685.22
2023-04-15T20:44:53.483Z,101684.84
2023-04-15T20:47:22.357Z,101687.81
2023-04-15T20:49:51.023Z,101683.03
2023-04-15T20:52:19.647Z,101681.50
2023-04-15T20:54:48.300Z,101686.59
2023-04-15T20:57:18.470Z,101691.03
2023-04-15T20:59:48.340Z,101688.66
2023-04-15T21:02:17.066Z,101690.38
2023-04-15T21:04:47.353Z,101688.59
2023-04-15T21:07:16.033Z,101691.34
2023-04-15T21:09:44.715Z,101696.34
2023-04-15T21:12:13.361Z,101689.84
2023-04-15T21:14:43.381Z,101692.72
2023-04-15T21:17:12.141Z,101696.25
2023-04-15T21:19:40.824Z,101692.31
2023-04-15T21:22:09.453Z,101695.94
2023-04-15T21:24:38.198Z,101696.44
2023-04-15T21:27:06.968Z,101696.06
2023-04-15T21:29:35.594Z,101697.03
2023-04-15T21:32:05.814Z,101701.19
2023-04-15T21:34:34.488Z,101692.06
2023-04-15T21:37:03.427Z,101702.25
2023-04-15T21:39:32.029Z,101696.06
2023-04-15T21:42:00.812Z,101698.44
2023-04-15T21:44:29.627Z,101703.00
2023-04-15T21:46:58.401Z,101697.75
2023-04-15T21:49:28.527Z,101699.47
2023-04-15T21:52:01.393Z,101705.41
2023-04-15T21:54:31.285Z,101709.13
2023-04-15T21:57:00.004Z,101702.63
2023-04-15T21:59:28.651Z,101719.25
2023-04-15T22:01:57.581Z,101710.41
2023-04-15T22:04:27.885Z,101715.59
2023-04-15T22:07:01.772Z,101713.25
2023-04-15T22:09:31.244Z,101713.44
2023-04-15T22:12:01.184Z,101721.69
2023-04-15T22:14:31.512Z,101721.44
2023-04-15T22:17:00.402Z,101719.97
2023-04-15T22:19:30.814Z,101718.88
2023-04-15T22:22:00.160Z,101725.78
2023-04-15T22:24:36.979Z,101724.75
2023-04-15T22:27:08.605Z,101717.31
2023-04-15T22:29:37.341Z,101723.63
2023-04-15T22:32:06.142Z,101723.75
2023-04-15T22:34:36.273Z,101729.56
2023-04-15T22:37:04.803Z,101734.56
2023-04-15T22:39:33.577Z,101718.91
2023-04-15T22:42:02.658Z,101728.59
2023-04-15T22:44:31.405Z,101719.41
2023-04-15T22:47:00.048Z,101729.81
2023-04-15T22:49:28.716Z,101722.25
2023-04-15T22:51:58.770Z,101722.63
2023-04-15T22:54:27.583Z,101727.63
2023-04-15T22:56:56.597Z,101720.19
2023-04-15T22:59:25.419Z,101725.16
2023-04-15T23:01:54.204Z,101720.13
2023-04-15T23:04:26.631Z,101721.56
2023-04-15T23:06:56.436Z,101722.59
2023-04-15T23:09:26.476Z,101717.38
2023-04-15T23:11:54.960Z,101720.44
2023-04-15T23:14:23.491Z,101716.00
2023-04-15T23:16:51.970Z,101711.03
2023-04-15T23:19:20.720Z,101714.81
2023-04-15T23:21:49.353Z,101709.00
2023-04-15T23:24:17.818Z,101715.13
2023-04-15T23:26:47.860Z,101708.06
2023-04-15T23:29:16.331Z,101702.34
2023-04-15T23:31:44.889Z,101713.00
2023-04-15T23:34:13.439Z,101705.69
2023-04-15T23:36:41.939Z,101713.41
2023-04-15T23:39:10.574Z,101709.94
2023-04-15T23:41:39.278Z,101715.09
2023-04-15T23:44:09.991Z,101709.47
2023-04-15T23:46:38.573Z,101716.69
2023-04-15T23:49:07.150Z,101711.75
2023-04-15T23:51:35.849Z,101713.06
2023-04-15T23:54:04.502Z,101707.59
2023-04-15T23:56:32.963Z,101710.25
2023-04-15T23:59:01.593Z,101707.03
